Time;durP1;ratioP1;P1;durP2;ratioP2;P2;SDS_P1;SDS_P2;PMS_P1;PMS_P2;Temp;Humidity;BMP_temperature;BMP_pressure;BME280_temperature;BME280_humidity;BME280_pressure;Samples;Min_cycle;Max_cycle;Signal;HPM_P1;HPM_P2
2021/05/16 00:00:32;;;;;;;1999.90;999.90;;;;;;;13.23;100.00;94950.28;5072665;28;20196;-64
2021/05/16 00:02:59;;;;;;;1999.90;999.90;;;;;;;13.17;100.00;94946.34;5072648;28;20219;-60
2021/05/16 00:05:28;;;;;;;1999.90;999.90;;;;;;;13.25;100.00;94936.94;5073271;28;20256;-62
2021/05/16 00:07:56;;;;;;;1999.90;999.90;;;;;;;13.24;100.00;94940.63;5072502;28;20828;-61
2021/05/16 00:10:25;;;;;;;1999.90;999.90;;;;;;;13.26;100.00;94939.19;5072620;28;20197;-62
2021/05/16 00:12:52;;;;;;;1999.90;999.90;;;;;;;13.31;100.00;94940.84;5072125;28;20232;-62
2021/05/16 00:15:21;;;;;;;1999.90;999.90;;;;;;;13.33;100.00;94943.91;5072224;28;20192;-61
2021/05/16 00:17:48;;;;;;;1999.90;999.90;;;;;;;13.24;100.00;94945.84;5072319;28;20207;-61
2021/05/16 00:20:17;;;;;;;1999.90;999.90;;;;;;;13.19;100.00;94949.41;5071253;28;20797;-61
2021/05/16 00:22:45;;;;;;;1999.90;999.90;;;;;;;13.15;100.00;94945.91;5072315;28;20249;-61
2021/05/16 00:25:16;;;;;;;1999.90;999.90;;;;;;;13.18;100.00;94952.34;5072258;28;20734;-61
2021/05/16 00:27:44;;;;;;;1999.90;999.90;;;;;;;13.19;100.00;94954.63;5072100;28;20196;-61
2021/05/16 00:30:13;;;;;;;1999.90;999.90;;;;;;;13.17;100.00;94953.41;5072301;28;20781;-61
2021/05/16 00:32:40;;;;;;;1999.90;999.90;;;;;;;13.13;100.00;94955.91;5071952;28;20287;-60
2021/05/16 00:35:10;;;;;;;1999.90;999.90;;;;;;;13.14;100.00;94952.22;5071928;28;20204;-60
2021/05/16 00:37:37;;;;;;;1999.90;999.90;;;;;;;13.14;100.00;94954.84;5071899;28;20270;-61
2021/05/16 00:40:05;;;;;;;1999.90;999.90;;;;;;;13.10;100.00;94945.34;5071852;28;20201;-60
2021/05/16 00:42:33;;;;;;;1999.90;999.90;;;;;;;13.11;100.00;94945.03;5071776;28;20203;-62
2021/05/16 00:45:02;;;;;;;1999.90;999.90;;;;;;;13.11;100.00;94945.03;5071912;28;20277;-61
2021/05/16 00:47:29;;;;;;;1999.90;999.90;;;;;;;13.18;100.00;94944.50;5071977;28;20284;-61
2021/05/16 00:49:56;;;;;;;1999.90;999.90;;;;;;;13.15;100.00;94950.38;5071441;28;20189;-62
2021/05/16 00:52:23;;;;;;;1999.90;999.90;;;;;;;13.17;100.00;94950.81;5071685;28;20189;-61
2021/05/16 00:54:50;;;;;;;1999.90;999.90;;;;;;;13.18;100.00;94952.34;5071469;28;20204;-61
2021/05/16 00:57:17;;;;;;;1999.90;999.90;;;;;;;13.14;100.00;94956.69;5071509;28;20192;-61
2021/05/16 00:59:45;;;;;;;1999.90;999.90;;;;;;;13.15;100.00;94945.91;5071969;28;20192;-61
2021/05/16 01:02:12;;;;;;;1999.90;999.90;;;;;;;13.21;100.00;94941.25;5071638;28;20380;-61
2021/05/16 01:04:39;;;;;;;1999.90;999.90;;;;;;;13.24;100.00;94951.06;5071486;28;20205;-61
2021/05/16 01:07:06;;;;;;;1999.90;999.90;;;;;;;13.18;100.00;94947.13;5071390;28;20196;-62
2021/05/16 01:09:37;;;;;;;1999.90;999.90;;;;;;;13.27;100.00;94947.78;5071282;28;20216;-61
2021/05/16 01:12:06;;;;;;;1999.90;999.90;;;;;;;13.30;100.00;94934.09;5071054;28;20398;-61
2021/05/16 01:14:33;;;;;;;1999.90;999.90;;;;;;;13.26;100.00;94938.44;5071486;28;20242;-61
2021/05/16 01:17:01;;;;;;;1999.90;999.90;;;;;;;13.31;100.00;94944.22;5071379;28;20196;-61
2021/05/16 01:19:31;;;;;;;1999.90;999.90;;;;;;;13.33;100.00;94938.66;5071092;28;20568;-61
2021/05/16 01:21:59;;;;;;;1999.90;999.90;;;;;;;13.30;100.00;94934.09;5071046;28;20279;-61
2021/05/16 01:24:28;;;;;;;1999.90;999.90;;;;;;;13.22;100.00;94924.50;5071623;28;20230;-64
2021/05/16 01:26:55;;;;;;;1999.90;999.90;;;;;;;13.26;100.00;94922.78;5070822;28;20278;-62
2021/05/16 01:29:23;;;;;;;1999.90;999.90;;;;;;;13.13;100.00;94918.63;5070857;28;20283;-62
2021/05/16 01:31:50;;;;;;;1999.90;999.90;;;;;;;13.11;100.00;94918.16;5070936;28;20205;-62
2021/05/16 01:34:17;;;;;;;1999.90;999.90;;;;;;;13.12;100.00;94909.28;5070861;28;20283;-62
2021/05/16 01:36:44;;;;;;;1999.90;999.90;;;;;;;13.10;100.00;94917.38;5070989;28;20589;-63
2021/05/16 01:39:14;;;;;;;1999.90;999.90;;;;;;;13.13;100.00;94908.19;5070773;28;20671;-62
2021/05/16 01:41:42;;;;;;;1999.90;999.90;;;;;;;13.19;100.00;94910.28;5070774;28;20203;-62
2021/05/16 01:44:12;;;;;;;1999.90;999.90;;;;;;;13.12;100.00;94915.25;5070597;28;20192;-65
2021/05/16 01:46:43;;;;;;;1999.90;999.90;;;;;;;13.07;100.00;94915.44;5070496;28;20375;-62
2021/05/16 01:49:10;;;;;;;1999.90;999.90;;;;;;;13.08;100.00;94909.13;5071076;28;20196;-62
2021/05/16 01:51:37;;;;;;;1999.90;999.90;;;;;;;13.07;100.00;94922.47;5070670;28;20287;-62
2021/05/16 01:54:06;;;;;;;1999.90;999.90;;;;;;;12.98;100.00;94922.56;5070579;28;20204;-62
2021/05/16 01:56:34;;;;;;;1999.90;999.90;;;;;;;13.02;100.00;94917.47;5070421;28;20192;-63
2021/05/16 01:59:04;;;;;;;1999.90;999.90;;;;;;;12.94;100.00;94919.09;5070695;28;20847;-63
2021/05/16 02:01:32;;;;;;;1999.90;999.90;;;;;;;12.97;100.00;94915.06;5071471;28;20374;-62
2021/05/16 02:03:59;;;;;;;1999.90;999.90;;;;;;;13.01;100.00;94921.94;5073264;28;20220;-59
2021/05/16 02:06:27;;;;;;;1999.90;999.90;;;;;;;13.07;100.00;94925.09;5070640;28;20236;-61
2021/05/16 02:08:53;;;;;;;1999.90;999.90;;;;;;;13.10;100.00;94932.28;5070513;28;20262;-61
2021/05/16 02:11:20;;;;;;;1999.90;999.90;;;;;;;13.13;100.00;94934.28;5069949;28;20315;-60
2021/05/16 02:13:48;;;;;;;1999.90;999.90;;;;;;;13.00;100.00;94935.31;5070561;28;20246;-61
2021/05/16 02:16:17;;;;;;;1999.90;999.90;;;;;;;13.04;100.00;94944.78;5070205;28;20200;-61
2021/05/16 02:18:44;;;;;;;1999.90;999.90;;;;;;;13.08;100.00;94931.84;5070025;28;20262;-61
2021/05/16 02:21:11;;;;;;;1999.90;999.90;;;;;;;13.06;100.00;94944.44;5070025;28;20201;-60
2021/05/16 02:23:39;;;;;;;1999.90;999.90;;;;;;;13.02;100.00;94943.56;5070673;28;20200;-61
2021/05/16 02:26:07;;;;;;;1999.90;999.90;;;;;;;13.03;100.00;94934.66;5070059;28;20228;-60
2021/05/16 02:28:34;;;;;;;1999.90;999.90;;;;;;;13.09;100.00;94935.97;5070108;28;20188;-61
2021/05/16 02:31:09;;;;;;;1999.90;999.90;;;;;;;13.14;100.00;94935.81;5069981;28;20189;-62
2021/05/16 02:33:35;;;;;;;1999.90;999.90;;;;;;;13.18;100.00;94934.06;5070354;28;20215;-62
2021/05/16 02:36:02;;;;;;;1999.90;999.90;;;;;;;13.09;100.00;94938.59;5070305;28;20204;-61
2021/05/16 02:38:29;;;;;;;1999.90;999.90;;;;;;;13.12;100.00;94930.91;5070040;28;20196;-61
2021/05/16 02:40:56;;;;;;;1999.90;999.90;;;;;;;13.11;100.00;94936.41;5070217;28;20294;-62
2021/05/16 02:43:23;;;;;;;1999.90;999.90;;;;;;;13.11;100.00;94937.19;5071022;28;20204;-61
2021/05/16 02:45:50;;;;;;;1999.90;999.90;;;;;;;13.22;100.00;94945.38;5074272;28;20319;-62
2021/05/16 02:48:17;;;;;;;1999.90;999.90;;;;;;;13.19;100.00;94940.81;5073930;28;20203;-61
2021/05/16 02:50:44;;;;;;;1999.90;999.90;;;;;;;13.12;100.00;94948.41;5074120;28;20667;-61
2021/05/16 02:53:13;;;;;;;1999.90;999.90;;;;;;;13.13;100.00;94949.94;5074427;28;20204;-61
2021/05/16 02:55:40;;;;;;;1999.90;999.90;;;;;;;13.13;100.00;94947.31;5074042;28;20261;-62
2021/05/16 02:58:07;;;;;;;1999.90;999.90;;;;;;;13.08;100.00;94955.31;5073750;28;20208;-60
2021/05/16 03:00:34;;;;;;;1999.90;999.90;;;;;;;13.01;100.00;94952.47;5073882;28;20197;-62
2021/05/16 03:03:00;;;;;;;1999.90;999.90;;;;;;;13.02;100.00;94959.22;5074053;28;20204;-61
2021/05/16 03:05:29;;;;;;;1999.90;999.90;;;;;;;12.99;100.00;94959.84;5073905;28;20307;-61
2021/05/16 03:07:56;;;;;;;1999.90;999.90;;;;;;;12.94;100.00;94953.75;5073815;28;20212;-61
2021/05/16 03:10:24;;;;;;;1999.90;999.90;;;;;;;12.97;100.00;94954.94;5073642;28;20319;-62
2021/05/16 03:12:52;;;;;;;1999.90;999.90;;;;;;;12.99;100.00;94959.84;5073460;28;20308;-61
2021/05/16 03:15:19;;;;;;;1999.90;999.90;;;;;;;13.03;100.00;94961.50;5073377;28;20579;-62
2021/05/16 03:17:46;;;;;;;1999.90;999.90;;;;;;;13.00;100.00;94956.19;5073463;28;20212;-61
2021/05/16 03:20:13;;;;;;;1999.90;999.90;;;;;;;13.01;100.00;94965.50;5073357;28;20209;-61
2021/05/16 03:22:41;;;;;;;1999.90;999.90;;;;;;;13.02;100.00;94965.19;5073643;28;20188;-61
2021/05/16 03:25:11;;;;;;;1999.90;999.90;;;;;;;13.04;100.00;94964.88;5073251;28;20196;-61
2021/05/16 03:27:38;;;;;;;1999.90;999.90;;;;;;;13.10;100.00;94963.59;5073262;28;20199;-61
2021/05/16 03:30:07;;;;;;;1999.90;999.90;;;;;;;13.12;100.00;94959.59;5073290;28;20195;-62
2021/05/16 03:32:35;;;;;;;1999.90;999.90;;;;;;;13.14;100.00;94964.50;5073157;28;20196;-61
2021/05/16 03:35:03;;;;;;;1999.90;999.90;;;;;;;13.14;100.00;94962.66;5073144;28;20622;-61
2021/05/16 03:37:30;;;;;;;1999.90;999.90;;;;;;;13.16;100.00;94960.47;5073437;28;20322;-61
2021/05/16 03:39:58;;;;;;;1999.90;999.90;;;;;;;13.20;100.00;94953.53;5072927;28;20694;-61
2021/05/16 03:42:25;;;;;;;1999.90;999.90;;;;;;;13.25;100.00;94948.09;5072934;28;20737;-59
2021/05/16 03:44:53;;;;;;;1999.90;999.90;;;;;;;13.27;100.00;94953.00;5071679;28;20193;-61
2021/05/16 03:47:20;;;;;;;1999.90;999.90;;;;;;;13.18;100.00;94955.72;5072808;28;20243;-61
2021/05/16 03:49:47;;;;;;;1999.90;999.90;;;;;;;13.21;100.00;94947.22;5073000;28;20220;-60
2021/05/16 03:52:14;;;;;;;1999.90;999.90;;;;;;;13.15;100.00;94947.78;5073414;28;20296;-62
2021/05/16 03:54:40;;;;;;;1999.90;999.90;;;;;;;13.15;100.00;94950.38;5071429;28;20279;-61
2021/05/16 03:57:08;;;;;;;1999.90;999.90;;;;;;;13.18;100.00;94960.16;5072995;28;20204;-61
2021/05/16 03:59:35;;;;;;;1999.90;999.90;;;;;;;13.19;100.00;94959.09;5072650;28;20579;-61
2021/05/16 04:02:02;;;;;;;1999.90;999.90;;;;;;;13.24;100.00;94956.28;5072780;28;20192;-61
2021/05/16 04:04:29;;;;;;;1999.90;999.90;;;;;;;13.27;100.00;94963.44;5072605;28;20271;-62
2021/05/16 04:06:56;;;;;;;1999.90;999.90;;;;;;;13.30;100.00;94960.19;5072252;28;20220;-62
2021/05/16 04:09:22;;;;;;;1999.90;999.90;;;;;;;13.34;100.00;94966.31;5072446;28;20743;-62
2021/05/16 04:11:49;;;;;;;1999.90;999.90;;;;;;;13.34;100.00;94968.91;5072188;28;20277;-61
2021/05/16 04:14:17;;;;;;;1999.90;999.90;;;;;;;13.40;100.00;94970.19;5072431;28;20283;-62
2021/05/16 04:16:45;;;;;;;1999.90;999.90;;;;;;;13.46;100.00;94968.91;5074849;28;20840;-60
2021/05/16 04:19:11;;;;;;;1999.90;999.90;;;;;;;13.44;100.00;94963.28;5076421;28;20239;-61
2021/05/16 04:21:38;;;;;;;1999.90;999.90;;;;;;;13.49;100.00;94962.31;5076730;28;20204;-61
2021/05/16 04:24:09;;;;;;;1999.90;999.90;;;;;;;13.56;100.00;94972.97;5073158;28;20240;-62
2021/05/16 04:26:36;;;;;;;1999.90;999.90;;;;;;;13.57;100.00;94977.88;5072228;28;20228;-61
2021/05/16 04:29:06;;;;;;;1999.90;999.90;;;;;;;13.51;100.00;94971.31;5072646;28;20586;-61
2021/05/16 04:31:34;;;;;;;1999.90;999.90;;;;;;;13.62;100.00;94982.88;5072597;28;20192;-62
2021/05/16 04:34:00;;;;;;;1999.90;999.90;;;;;;;13.68;100.00;94983.44;5072137;28;20242;-62
2021/05/16 04:36:27;;;;;;;1999.90;999.90;;;;;;;13.69;100.00;94988.34;5072587;28;20662;-61
2021/05/16 04:38:54;;;;;;;1999.90;999.90;;;;;;;13.72;100.00;94981.69;5073219;28;20197;-61
2021/05/16 04:41:21;;;;;;;1999.90;999.90;;;;;;;13.67;100.00;94993.09;5074128;28;20241;-61
2021/05/16 04:43:48;;;;;;;1999.90;999.90;;;;;;;13.72;100.00;94981.69;5074598;28;20216;-61
2021/05/16 04:46:15;;;;;;;1999.90;999.90;;;;;;;13.83;100.00;94982.03;5078091;28;20310;-60
2021/05/16 04:48:43;;;;;;;1999.90;999.90;;;;;;;13.86;100.00;94986.59;5074782;28;20200;-60
2021/05/16 04:51:10;;;;;;;1999.90;999.90;;;;;;;13.84;100.00;94986.16;5072896;28;20203;-61
2021/05/16 04:53:37;;;;;;;1999.90;999.90;;;;;;;13.90;100.00;94984.88;5072888;28;20647;-61
2021/05/16 04:56:05;;;;;;;1999.90;999.90;;;;;;;13.94;100.00;94985.75;5072185;28;20199;-63
2021/05/16 04:58:32;;;;;;;1999.90;999.90;;;;;;;13.95;100.00;94989.84;5071794;28;20257;-61
2021/05/16 05:00:58;;;;;;;1999.90;999.90;;;;;;;13.98;100.00;94995.22;5074252;28;20199;-61
2021/05/16 05:03:25;;;;;;;1999.90;999.90;;;;;;;14.00;100.00;94987.78;5072453;28;20225;-61
2021/05/16 05:05:54;;;;;;;1999.90;999.90;;;;;;;13.95;100.00;94987.25;5071491;28;20228;-60
2021/05/16 05:08:21;;;;;;;1999.90;999.90;;;;;;;14.05;100.00;94992.03;5072850;28;20200;-61
2021/05/16 05:10:48;;;;;;;1999.90;999.90;;;;;;;14.01;100.00;94994.53;5074774;28;20196;-60
2021/05/16 05:13:15;;;;;;;1999.90;999.90;;;;;;;14.04;100.00;94993.16;5075474;28;20228;-58
2021/05/16 05:15:42;;;;;;;1999.90;999.90;;;;;;;14.06;100.00;95001.41;5074710;28;20690;-61
2021/05/16 05:18:10;;;;;;;1999.90;999.90;;;;;;;14.08;100.00;95009.69;5073354;28;20433;-62
2021/05/16 05:20:36;;;;;;;1999.90;999.90;;;;;;;14.15;100.00;95010.66;5073723;28;20223;-61
2021/05/16 05:23:04;;;;;;;1999.90;999.90;;;;;;;14.18;100.00;95011.88;5075160;28;20278;-60
2021/05/16 05:25:31;;;;;;;1999.90;999.90;;;;;;;14.22;100.00;95008.25;5075360;28;20733;-62
2021/05/16 05:27:58;;;;;;;1999.90;999.90;;;;;;;14.28;100.00;95008.81;5074801;28;20690;-61
2021/05/16 05:30:26;;;;;;;1999.90;999.90;;;;;;;14.33;100.00;95005.22;5074376;28;20201;-62
2021/05/16 05:32:53;;;;;;;1999.90;999.90;;;;;;;14.34;100.00;95017.97;5075766;28;20188;-62
2021/05/16 05:35:20;;;;;;;1999.90;999.90;;;;;;;14.33;100.00;95015.66;5074309;28;20660;-63
2021/05/16 05:37:47;;;;;;;1999.90;999.90;;;;;;;14.42;100.00;95017.09;5075015;28;20203;-59
2021/05/16 05:40:15;;;;;;;1999.90;999.90;;;;;;;14.40;100.00;95013.28;5071993;28;20246;-61
2021/05/16 05:42:42;;;;;;;1999.90;999.90;;;;;;;14.35;100.00;95014.25;5072765;28;20203;-60
2021/05/16 05:45:10;;;;;;;1999.90;999.90;;;;;;;14.37;100.00;95009.47;5075289;28;20199;-60
2021/05/16 05:47:38;;;;;;;1999.90;999.90;;;;;;;14.34;100.00;95019.81;5075994;28;20208;-61
2021/05/16 05:50:06;;;;;;;1999.90;999.90;;;;;;;14.39;100.00;95019.63;5074041;28;20197;-61
2021/05/16 05:52:33;;;;;;;1999.90;999.90;;;;;;;14.54;100.00;95019.72;5073659;28;20196;-60
2021/05/16 05:54:59;;;;;;;1999.90;999.90;;;;;;;14.54;100.00;95014.47;5070949;28;20203;-61
2021/05/16 05:57:27;;;;;;;1999.90;999.90;;;;;;;14.62;100.00;95018.81;5070901;28;20201;-60
2021/05/16 05:59:54;;;;;;;1999.90;999.90;;;;;;;14.68;100.00;95021.97;5070517;28;20201;-59
2021/05/16 06:02:21;;;;;;;1999.90;999.90;;;;;;;14.76;100.00;95028.16;5070964;28;20196;-59
2021/05/16 06:04:51;;;;;;;1999.90;999.90;;;;;;;14.81;100.00;95025.31;5070254;28;20242;-59
2021/05/16 06:07:18;;;;;;;1999.90;999.90;;;;;;;14.84;100.00;95024.66;5070216;28;20228;-59
2021/05/16 06:09:45;;;;;;;1999.90;999.90;;;;;;;14.83;100.00;95026.53;5070818;28;20566;-59
2021/05/16 06:12:12;;;;;;;1999.90;999.90;;;;;;;14.92;100.00;95031.59;5070156;28;20255;-61
2021/05/16 06:14:40;;;;;;;1999.90;999.90;;;;;;;15.07;99.75;95025.69;5070646;28;20237;-59
2021/05/16 06:17:06;;;;;;;1999.90;999.90;;;;;;;15.15;97.49;95022.16;5070102;28;20575;-59
2021/05/16 06:19:33;;;;;;;1999.90;999.90;;;;;;;15.24;95.95;95022.75;5069548;28;20303;-59
2021/05/16 06:22:00;;;;;;;1999.90;999.90;;;;;;;15.31;95.41;95019.56;5070102;28;20188;-60
2021/05/16 06:24:27;;;;;;;1999.90;999.90;;;;;;;15.34;97.34;95022.28;5070742;28;20208;-58
2021/05/16 06:26:54;;;;;;;1999.90;999.90;;;;;;;15.51;96.42;95023.88;5070110;28;20311;-60
2021/05/16 06:29:20;;;;;;;1999.90;999.90;;;;;;;15.57;94.73;95030.41;5070155;28;20232;-59
2021/05/16 06:31:48;;;;;;;1999.90;999.90;;;;;;;15.69;94.75;95034.81;5069983;28;20734;-60
2021/05/16 06:34:16;;;;;;;1999.90;999.90;;;;;;;15.84;94.76;95028.84;5070270;28;20203;-59
2021/05/16 06:36:43;;;;;;;1999.90;999.90;;;;;;;16.05;93.54;95037.19;5069972;28;20232;-59
2021/05/16 06:39:09;;;;;;;1999.90;999.90;;;;;;;16.13;92.65;95023.16;5069928;28;20227;-60
2021/05/16 06:41:36;;;;;;;1999.90;999.90;;;;;;;16.23;93.22;95022.66;5069941;28;20583;-62
2021/05/16 06:44:04;;;;;;;1999.90;999.90;;;;;;;16.15;91.54;95028.81;5069949;28;20266;-59
2021/05/16 06:46:31;;;;;;;1999.90;999.90;;;;;;;16.08;91.54;95031.28;5069670;28;20228;-57
2021/05/16 06:48:59;;;;;;;1999.90;999.90;;;;;;;16.36;91.33;95023.31;5069601;28;20586;-58
2021/05/16 06:51:26;;;;;;;1999.90;999.90;;;;;;;16.50;88.66;95020.22;5069915;28;20197;-61
2021/05/16 06:53:53;;;;;;;1999.90;999.90;;;;;;;16.48;91.67;95019.81;5069921;28;20196;-60
2021/05/16 06:56:20;;;;;;;1999.90;999.90;;;;;;;16.54;90.96;95015.81;5069746;28;20195;-59
2021/05/16 06:58:47;;;;;;;1999.90;999.90;;;;;;;16.75;88.91;95024.16;5069911;28;20235;-59
2021/05/16 07:01:14;;;;;;;1999.90;999.90;;;;;;;16.68;89.87;95021.41;5069714;28;20284;-59
2021/05/16 07:03:42;;;;;;;1999.90;999.90;;;;;;;16.81;88.42;95016.78;5069569;28;20199;-62
2021/05/16 07:06:09;;;;;;;1999.90;999.90;;;;;;;16.99;87.31;95017.91;5069993;28;20232;-59
2021/05/16 07:08:39;;;;;;;1999.90;999.90;;;;;;;17.18;85.40;95025.81;5070091;28;20381;-58
2021/05/16 07:11:06;;;;;;;1999.90;999.90;;;;;;;17.07;87.03;95025.59;5070161;28;20253;-58
2021/05/16 07:13:33;;;;;;;1999.90;999.90;;;;;;;17.18;87.57;95029.16;5069608;28;20264;-59
2021/05/16 07:16:00;;;;;;;1999.90;999.90;;;;;;;17.23;85.67;95026.25;5069593;28;20196;-59
2021/05/16 07:18:27;;;;;;;1999.90;999.90;;;;;;;17.48;88.47;95026.75;5069937;28;20207;-61
2021/05/16 07:20:53;;;;;;;1999.90;999.90;;;;;;;17.59;86.62;95022.44;5069550;28;20246;-60
2021/05/16 07:23:21;;;;;;;1999.90;999.90;;;;;;;17.61;87.33;95027.38;5070012;28;20204;-59
2021/05/16 07:25:48;;;;;;;1999.90;999.90;;;;;;;17.59;85.67;95019.06;5069461;28;20277;-59
2021/05/16 07:28:15;;;;;;;1999.90;999.90;;;;;;;17.62;84.24;95019.13;5069518;28;20728;-58
2021/05/16 07:30:42;;;;;;;1999.90;999.90;;;;;;;17.64;82.85;95013.50;5072513;28;20203;-59
2021/05/16 07:33:10;;;;;;;1999.90;999.90;;;;;;;17.70;81.95;95014.75;5073090;28;20203;-58
2021/05/16 07:35:37;;;;;;;1999.90;999.90;;;;;;;17.85;81.98;95019.13;5073523;28;20246;-60
2021/05/16 07:38:04;;;;;;;1999.90;999.90;;;;;;;17.91;82.26;95009.09;5073078;28;20578;-59
2021/05/16 07:40:32;;;;;;;1999.90;999.90;;;;;;;18.10;80.97;95019.53;5072869;28;20759;-59
2021/05/16 07:42:58;;;;;;;1999.90;999.90;;;;;;;17.93;80.73;95020.03;5073127;28;20200;-58
2021/05/16 07:45:25;;;;;;;1999.90;999.90;;;;;;;17.84;80.78;95015.00;5072821;28;20192;-60
2021/05/16 07:47:52;;;;;;;1999.90;999.90;;;;;;;17.87;81.26;95014.31;5072835;28;20196;-59
2021/05/16 07:50:19;;;;;;;1999.90;999.90;;;;;;;17.87;81.90;95018.78;5072946;28;20375;-59
2021/05/16 07:52:46;;;;;;;1999.90;999.90;;;;;;;17.96;81.54;95021.94;5072883;28;20212;-62
2021/05/16 07:55:13;;;;;;;1999.90;999.90;;;;;;;17.92;82.07;95021.91;5072764;28;20189;-59
2021/05/16 07:57:41;;;;;;;1999.90;999.90;;;;;;;17.84;82.27;95019.47;5072619;28;20192;-58
2021/05/16 08:00:11;;;;;;;1999.90;999.90;;;;;;;17.80;81.66;95021.28;5072633;28;20203;-59
2021/05/16 08:02:38;;;;;;;1999.90;999.90;;;;;;;17.94;81.88;95017.03;5072844;28;20205;-59
2021/05/16 08:05:06;;;;;;;1999.90;999.90;;;;;;;17.99;81.14;95016.75;5072498;28;20287;-59
2021/05/16 08:07:32;;;;;;;1999.90;999.90;;;;;;;18.20;81.01;95016.31;5072568;28;20224;-62
2021/05/16 08:09:59;;;;;;;1999.90;999.90;;;;;;;18.35;80.24;95019.91;5072539;28;20196;-59
2021/05/16 08:12:26;;;;;;;1999.90;999.90;;;;;;;18.39;80.26;95020.72;5072231;28;20292;-61
2021/05/16 08:14:54;;;;;;;1999.90;999.90;;;;;;;18.50;78.79;95021.63;5072588;28;20196;-59
2021/05/16 08:17:21;;;;;;;1999.90;999.90;;;;;;;18.62;78.10;95018.84;5072577;28;20233;-60
2021/05/16 08:19:48;;;;;;;1999.90;999.90;;;;;;;18.81;77.52;95023.22;5071981;28;20308;-59
2021/05/16 08:22:14;;;;;;;1999.90;999.90;;;;;;;19.17;75.33;95021.78;5072494;28;20200;-60
2021/05/16 08:24:41;;;;;;;1999.90;999.90;;;;;;;19.40;77.06;95019.00;5072456;28;20727;-60
2021/05/16 08:27:09;;;;;;;1999.90;999.90;;;;;;;19.35;77.55;95025.38;5071940;28;20711;-60
2021/05/16 08:29:36;;;;;;;1999.90;999.90;;;;;;;19.38;76.70;95024.63;5072062;28;20884;-59
2021/05/16 08:32:05;;;;;;;1999.90;999.90;;;;;;;19.86;72.49;95028.16;5071924;28;20559;-60
2021/05/16 08:34:32;;;;;;;1999.90;999.90;;;;;;;19.79;73.65;95017.53;5071971;28;20199;-60
2021/05/16 08:36:59;;;;;;;1999.90;999.90;;;;;;;19.39;73.57;95025.41;5071989;28;20189;-61
2021/05/16 08:39:26;;;;;;;1999.90;999.90;;;;;;;19.51;72.92;95018.03;5072226;28;20196;-58
2021/05/16 08:41:52;;;;;;;1999.90;999.90;;;;;;;19.77;74.25;95023.19;5071506;28;20353;-60
2021/05/16 08:44:20;;;;;;;1999.90;999.90;;;;;;;19.80;73.78;95026.97;5071811;28;20249;-60
2021/05/16 08:46:47;;;;;;;1999.90;999.90;;;;;;;20.05;69.30;95021.91;5071766;28;20599;-60
2021/05/16 08:49:15;;;;;;;1999.90;999.90;;;;;;;20.36;66.99;95021.44;5072223;28;20196;-60
2021/05/16 08:51:44;;;;;;;1999.90;999.90;;;;;;;20.86;66.86;95021.75;5071700;28;20660;-61
2021/05/16 08:54:11;;;;;;;1999.90;999.90;;;;;;;21.35;69.47;95016.69;5071658;28;20219;-60
2021/05/16 08:56:38;;;;;;;1999.90;999.90;;;;;;;21.55;64.82;95021.63;5071824;28;20189;-61
2021/05/16 08:59:05;;;;;;;1999.90;999.90;;;;;;;21.33;63.61;95018.94;5071767;28;20223;-59
2021/05/16 09:01:38;;;;;;;1999.90;999.90;;;;;;;20.97;64.10;95009.34;5071582;28;20220;-60
2021/05/16 09:04:22;;;;;;;1999.90;999.90;;;;;;;20.83;65.43;95014.53;5071178;28;20629;-58
2021/05/16 09:06:53;;;;;;;1999.90;999.90;;;;;;;20.69;65.41;95011.81;5071531;28;20303;-61
2021/05/16 09:09:32;;;;;;;1999.90;999.90;;;;;;;20.68;64.92;95005.03;5071495;28;20188;-61
2021/05/16 09:12:01;;;;;;;1999.90;999.90;;;;;;;20.56;63.50;95004.22;5071026;28;20192;-59
2021/05/16 09:14:57;;;;;;;1999.90;999.90;;;;;;;20.41;64.86;95001.84;5071414;28;20277;-59
2021/05/16 09:17:29;;;;;;;1999.90;999.90;;;;;;;20.46;64.16;94999.63;5036794;28;20268;-60
2021/05/16 09:20:00;;;;;;;1999.90;999.90;;;;;;;20.50;65.90;94997.78;5071124;28;20300;-60
2021/05/16 09:22:38;;;;;;;1999.90;999.90;;;;;;;20.71;65.66;94991.84;5071065;28;20204;-60
2021/05/16 09:25:10;;;;;;;1999.90;999.90;;;;;;;21.07;69.31;94986.72;5071195;28;20233;-60
2021/05/16 09:27:38;;;;;;;1999.90;999.90;;;;;;;21.67;65.43;94984.25;5070935;28;20270;-59
2021/05/16 09:30:23;;;;;;;1999.90;999.90;;;;;;;21.94;64.11;94980.16;5071201;28;20675;-60
2021/05/16 09:32:55;;;;;;;1999.90;999.90;;;;;;;21.70;64.04;94978.22;5071188;28;20291;-59
2021/05/16 09:35:35;;;;;;;1999.90;999.90;;;;;;;21.60;61.71;94978.97;5070891;28;20196;-58
2021/05/16 09:38:08;;;;;;;1999.90;999.90;;;;;;;21.34;60.83;94970.22;5070800;28;20199;-60
2021/05/16 09:40:41;;;;;;;1999.90;999.90;;;;;;;21.40;62.58;94965.31;5071026;28;20275;-59
2021/05/16 09:43:13;;;;;;;1999.90;999.90;;;;;;;21.62;64.17;94966.13;5070665;28;20203;-58
2021/05/16 09:45:47;;;;;;;1999.90;999.90;;;;;;;21.72;64.21;94962.72;5070608;28;20195;-60
2021/05/16 09:48:20;;;;;;;1999.90;999.90;;;;;;;21.92;62.84;94961.19;5070689;28;20200;-59
2021/05/16 09:51:17;;;;;;;1999.90;999.90;;;;;;;21.87;61.63;94958.94;5070681;28;20250;-60
2021/05/16 09:54:04;;;;;;;1999.90;999.90;;;;;;;22.10;62.08;94955.94;5070477;28;20214;-60
2021/05/16 09:56:33;;;;;;;1999.90;999.90;;;;;;;22.05;61.00;94951.78;5070415;28;20618;-60
2021/05/16 09:59:01;;;;;;;1999.90;999.90;;;;;;;22.65;61.64;94953.56;5070891;28;20196;-59
2021/05/16 10:01:29;;;;;;;1999.90;999.90;;;;;;;23.20;58.88;94942.38;5070696;28;20870;-60
2021/05/16 10:03:58;;;;;;;1999.90;999.90;;;;;;;23.05;58.06;94942.47;5070606;28;20207;-58
2021/05/16 10:06:27;;;;;;;1999.90;999.90;;;;;;;23.39;58.18;94940.00;5070164;28;20224;-59
2021/05/16 10:08:54;;;;;;;1999.90;999.90;;;;;;;23.49;54.37;94935.78;5070188;28;20702;-57
2021/05/16 10:11:24;;;;;;;1999.90;999.90;;;;;;;23.64;55.93;94934.56;5070943;28;20961;-59
2021/05/16 10:13:56;;;;;;;1999.90;999.90;;;;;;;23.73;52.36;94931.44;5070194;28;20794;-60
2021/05/16 10:16:22;;;;;;;1999.90;999.90;;;;;;;23.37;52.97;94925.59;5070490;28;20228;-59
2021/05/16 10:18:51;;;;;;;1999.90;999.90;;;;;;;22.92;53.49;94922.06;5070022;28;20196;-59
2021/05/16 10:21:22;;;;;;;1999.90;999.90;;;;;;;22.68;53.32;94915.69;5070309;28;20694;-60
2021/05/16 10:24:08;;;;;;;1999.90;999.90;;;;;;;22.14;56.35;94920.41;5070125;28;20560;-59
2021/05/16 10:26:35;;;;;;;1999.90;999.90;;;;;;;22.10;55.77;94908.31;5070119;28;20234;-58
2021/05/16 10:29:05;;;;;;;1999.90;999.90;;;;;;;22.15;56.09;94908.69;5070280;28;20230;-58
2021/05/16 10:31:55;;;;;;;1999.90;999.90;;;;;;;21.98;56.59;94901.50;5070074;28;20273;-61
2021/05/16 10:34:43;;;;;;;1999.90;999.90;;;;;;;21.73;57.01;94903.38;5054855;28;20632;-58
2021/05/16 10:37:13;;;;;;;1999.90;999.90;;;;;;;21.34;61.16;94900.72;5065847;28;20208;-58
2021/05/16 10:39:52;;;;;;;1999.90;999.90;;;;;;;21.15;59.55;94901.84;5070020;28;20199;-58
2021/05/16 10:42:20;;;;;;;1999.90;999.90;;;;;;;20.81;60.74;94908.50;5069909;28;20693;-57
2021/05/16 10:45:02;;;;;;;1999.90;999.90;;;;;;;20.80;60.84;94920.19;5069851;28;20196;-57
2021/05/16 10:48:06;;;;;;;1999.90;999.90;;;;;;;19.99;64.76;94975.88;5069946;28;20256;-58
2021/05/16 10:50:55;;;;;;;1999.90;999.90;;;;;;;18.70;77.00;95017.81;5070230;28;20203;-57
2021/05/16 10:53:26;;;;;;;1999.90;999.90;;;;;;;16.91;83.99;95040.63;5070281;28;20694;-59
2021/05/16 10:56:06;;;;;;;1999.90;999.90;;;;;;;15.10;76.28;95061.63;5070008;28;20204;-61